createdAt,value
2023-01-08T00:01:11.186Z,-1.63
2023-01-08T00:03:38.809Z,-1.63
2023-01-08T00:06:08.907Z,-1.64
2023-01-08T00:08:35.485Z,-1.66
2023-01-08T00:11:01.955Z,-1.70
2023-01-08T00:13:28.599Z,-1.75
2023-01-08T00:15:55.450Z,-1.83
2023-01-08T00:18:22.097Z,-1.85
2023-01-08T00:20:48.864Z,-1.88
2023-01-08T00:23:19.814Z,-1.89
2023-01-08T00:25:47.041Z,-1.87
2023-01-08T00:28:13.468Z,-1.86
2023-01-08T00:30:40.079Z,-1.86
2023-01-08T00:33:06.758Z,-1.89
2023-01-08T00:35:33.303Z,-1.92
2023-01-08T00:37:59.835Z,-1.93
2023-01-08T00:40:26.244Z,-1.94
2023-01-08T00:42:52.717Z,-1.95
2023-01-08T00:45:19.197Z,-1.98
2023-01-08T00:47:45.793Z,-2.02
2023-01-08T00:50:12.219Z,-2.05
2023-01-08T00:52:38.773Z,-2.02
2023-01-08T00:55:06.023Z,-1.99
2023-01-08T00:57:34.499Z,-2.01
2023-01-08T01:00:01.052Z,-2.03
2023-01-08T01:02:27.699Z,-2.04
2023-01-08T01:04:54.291Z,-2.04
2023-01-08T01:07:20.892Z,-2.04
2023-01-08T01:09:47.419Z,-2.06
2023-01-08T01:12:13.948Z,-2.10
2023-01-08T01:14:40.669Z,-2.13
2023-01-08T01:17:07.259Z,-2.19
2023-01-08T01:19:33.792Z,-2.23
2023-01-08T01:22:00.314Z,-2.23
2023-01-08T01:24:26.877Z,-2.22
2023-01-08T01:26:53.922Z,-2.21
2023-01-08T01:29:20.466Z,-2.21
2023-01-08T01:31:47.022Z,-2.17
2023-01-08T01:34:13.717Z,-2.06
2023-01-08T01:36:40.279Z,-2.01
2023-01-08T01:39:08.909Z,-1.99
2023-01-08T01:41:45.135Z,-1.99
2023-01-08T01:44:35.354Z,-2.01
2023-01-08T01:47:13.838Z,-2.06
2023-01-08T01:49:44.025Z,-2.13
2023-01-08T01:52:11.852Z,-2.19
2023-01-08T01:54:38.395Z,-2.24
2023-01-08T01:57:06.900Z,-2.28
2023-01-08T01:59:34.033Z,-2.30
2023-01-08T02:02:01.033Z,-2.33
2023-01-08T02:04:27.761Z,-2.35
2023-01-08T02:06:59.575Z,-2.36
2023-01-08T02:09:47.725Z,-2.36
2023-01-08T02:12:33.017Z,-2.39
2023-01-08T02:14:59.686Z,-2.43
2023-01-08T02:17:49.740Z,-2.49
2023-01-08T02:20:40.135Z,-2.52
2023-01-08T02:23:24.736Z,-2.50
2023-01-08T02:26:09.270Z,-2.49
2023-01-08T02:29:01.807Z,-2.50
2023-01-08T02:31:31.194Z,-2.50
2023-01-08T02:33:57.910Z,-2.51
2023-01-08T02:37:02.905Z,-2.50
2023-01-08T02:39:46.022Z,-2.51
2023-01-08T02:42:23.691Z,-2.53
2023-01-08T02:45:23.611Z,-2.53
2023-01-08T02:47:55.613Z,-2.52
2023-01-08T02:50:32.702Z,-2.55
2023-01-08T02:53:10.841Z,-2.59
2023-01-08T02:55:40.012Z,-2.64
2023-01-08T02:58:08.069Z,-2.67
2023-01-08T03:00:35.672Z,-2.68
2023-01-08T03:03:11.553Z,-2.65
2023-01-08T03:05:41.785Z,-2.61
2023-01-08T03:08:10.236Z,-2.58
2023-01-08T03:10:41.376Z,-2.57
2023-01-08T03:13:21.639Z,-2.59
2023-01-08T03:15:53.446Z,-2.60
2023-01-08T03:18:28.058Z,-2.61
2023-01-08T03:20:55.610Z,-2.64
2023-01-08T03:23:24.302Z,-2.67
2023-01-08T03:25:50.842Z,-2.68
2023-01-08T03:28:31.199Z,-2.67
2023-01-08T03:30:59.226Z,-2.66
2023-01-08T03:33:27.964Z,-2.65
2023-01-08T03:35:57.030Z,-2.61
2023-01-08T03:38:34.767Z,-2.59
2023-01-08T03:41:06.976Z,-2.59
2023-01-08T03:43:33.482Z,-2.59
2023-01-08T03:46:03.654Z,-2.61
2023-01-08T03:48:33.426Z,-2.61
2023-01-08T03:51:00.182Z,-2.62
2023-01-08T03:53:27.708Z,-2.63
2023-01-08T03:55:55.169Z,-2.65
2023-01-08T03:58:21.639Z,-2.65
2023-01-08T04:00:48.017Z,-2.63
2023-01-08T04:03:14.617Z,-2.60
2023-01-08T04:05:41.043Z,-2.60
2023-01-08T04:08:07.468Z,-2.59
2023-01-08T04:10:34.237Z,-2.58
2023-01-08T04:13:00.648Z,-2.56
2023-01-08T04:15:27.244Z,-2.55
2023-01-08T04:17:54.471Z,-2.56
2023-01-08T04:20:21.174Z,-2.60
2023-01-08T04:22:47.647Z,-2.63
2023-01-08T04:25:14.289Z,-2.66
2023-01-08T04:27:40.766Z,-2.66
2023-01-08T04:30:08.010Z,-2.67
2023-01-08T04:32:34.545Z,-2.69
2023-01-08T04:35:01.064Z,-2.69
2023-01-08T04:37:27.573Z,-2.70
2023-01-08T04:39:54.282Z,-2.75
2023-01-08T04:42:20.728Z,-2.80
2023-01-08T04:44:47.202Z,-2.83
2023-01-08T04:47:15.298Z,-2.87
2023-01-08T04:49:41.711Z,-2.87
2023-01-08T04:52:08.264Z,-2.88
2023-01-08T04:54:34.748Z,-2.88
2023-01-08T04:57:01.154Z,-2.90
2023-01-08T04:59:27.594Z,-2.86
2023-01-08T05:01:54.256Z,-2.84
2023-01-08T05:04:20.948Z,-2.86
2023-01-08T05:06:47.435Z,-2.87
2023-01-08T05:09:13.899Z,-2.87
2023-01-08T05:11:40.500Z,-2.87
2023-01-08T05:14:06.974Z,-2.86
2023-01-08T05:16:33.613Z,-2.87
2023-01-08T05:19:00.094Z,-2.89
2023-01-08T05:21:26.565Z,-2.90
2023-01-08T05:23:53.210Z,-2.89
2023-01-08T05:26:19.748Z,-2.90
2023-01-08T05:28:46.591Z,-2.90
2023-01-08T05:31:13.307Z,-2.93
2023-01-08T05:33:40.484Z,-2.99
2023-01-08T05:36:12.501Z,-3.02
2023-01-08T05:38:39.826Z,-3.02
2023-01-08T05:41:07.147Z,-2.99
2023-01-08T05:43:33.845Z,-2.96
2023-01-08T05:46:02.440Z,-2.98
2023-01-08T05:48:30.505Z,-3.00
2023-01-08T05:50:57.046Z,-3.02
2023-01-08T05:53:23.575Z,-3.04
2023-01-08T05:55:50.122Z,-3.04
2023-01-08T05:58:16.869Z,-3.03
2023-01-08T06:00:43.404Z,-3.02
2023-01-08T06:03:10.006Z,-3.02
2023-01-08T06:05:36.723Z,-3.02
2023-01-08T06:08:03.397Z,-3.03
2023-01-08T06:10:29.874Z,-3.06
2023-01-08T06:12:56.365Z,-3.08
2023-01-08T06:15:22.869Z,-3.11
2023-01-08T06:17:49.603Z,-3.08
2023-01-08T06:20:16.242Z,-3.05
2023-01-08T06:22:42.708Z,-3.05
2023-01-08T06:25:09.427Z,-3.06
2023-01-08T06:27:35.855Z,-3.06
2023-01-08T06:30:02.280Z,-3.04
2023-01-08T06:32:28.685Z,-3.02
2023-01-08T06:34:55.181Z,-3.00
2023-01-08T06:37:22.037Z,-2.97
2023-01-08T06:39:48.474Z,-2.94
2023-01-08T06:42:15.157Z,-2.93
2023-01-08T06:44:41.597Z,-2.91
2023-01-08T06:47:08.132Z,-2.91
2023-01-08T06:49:34.551Z,-2.91
2023-01-08T06:52:01.030Z,-2.89
2023-01-08T06:54:27.498Z,-2.90
2023-01-08T06:56:54.590Z,-2.89
2023-01-08T06:59:22.011Z,-2.88
2023-01-08T07:01:49.240Z,-2.87
2023-01-08T07:04:16.012Z,-2.79
2023-01-08T07:06:42.432Z,-2.59
2023-01-08T07:09:13.219Z,-2.34
2023-01-08T07:11:41.127Z,-2.20
2023-01-08T07:14:07.571Z,-2.16
2023-01-08T07:16:34.158Z,-2.11
2023-01-08T07:19:00.637Z,-2.04
2023-01-08T07:21:27.189Z,-1.96
2023-01-08T07:23:53.625Z,-1.89
2023-01-08T07:26:20.261Z,-1.81
2023-01-08T07:28:46.801Z,-1.71
2023-01-08T07:31:13.338Z,-1.62
2023-01-08T07:33:40.090Z,-1.52
2023-01-08T07:36:07.356Z,-1.43
2023-01-08T07:38:33.883Z,-1.31
2023-01-08T07:41:00.428Z,-1.19
2023-01-08T07:43:26.997Z,-1.05
2023-01-08T07:45:53.395Z,-0.96
2023-01-08T07:48:56.834Z,-0.86
2023-01-08T07:51:23.458Z,-0.78
2023-01-08T07:53:49.896Z,-0.66
2023-01-08T07:56:16.535Z,-0.52
2023-01-08T07:58:42.960Z,-0.38
2023-01-08T08:01:11.249Z,-0.29
2023-01-08T08:03:38.950Z,-0.20
2023-01-08T08:06:06.069Z,-0.12
2023-01-08T08:08:32.497Z,-0.07
2023-01-08T08:10:59.016Z,0.03
2023-01-08T08:13:26.015Z,0.17
2023-01-08T08:15:52.823Z,0.31
2023-01-08T08:18:19.516Z,0.47
2023-01-08T08:20:46.044Z,0.62
2023-01-08T08:23:14.844Z,0.73
2023-01-08T08:25:42.934Z,0.80
2023-01-08T08:28:11.397Z,0.86
2023-01-08T08:30:42.100Z,0.95
2023-01-08T08:33:10.106Z,1.01
2023-01-08T08:35:37.373Z,1.13
2023-01-08T08:38:04.833Z,1.33
2023-01-08T08:40:31.477Z,1.55
2023-01-08T08:43:00.322Z,1.81
2023-01-08T08:45:27.633Z,2.20
2023-01-08T08:47:54.483Z,2.80
2023-01-08T08:50:22.178Z,3.43
2023-01-08T08:52:48.683Z,3.90
2023-01-08T08:55:16.013Z,4.43
2023-01-08T08:57:43.501Z,4.89
2023-01-08T09:00:11.283Z,5.35
2023-01-08T09:02:37.914Z,5.72
2023-01-08T09:05:05.770Z,6.11
2023-01-08T09:07:32.633Z,6.38
2023-01-08T09:09:59.280Z,6.43
2023-01-08T09:12:25.754Z,6.36
2023-01-08T09:14:52.368Z,6.45
2023-01-08T09:17:19.003Z,6.67
2023-01-08T09:19:45.429Z,6.82
2023-01-08T09:22:11.852Z,7.12
2023-01-08T09:24:38.564Z,7.30
2023-01-08T09:27:05.048Z,7.56
2023-01-08T09:29:31.431Z,7.63
2023-01-08T09:31:57.971Z,7.86
2023-01-08T09:34:24.446Z,7.94
2023-01-08T09:36:50.932Z,8.16
2023-01-08T09:39:17.389Z,8.23
2023-01-08T09:41:47.091Z,8.29
2023-01-08T09:44:23.881Z,8.38
2023-01-08T09:46:50.870Z,8.57
2023-01-08T09:49:25.094Z,8.78
2023-01-08T09:51:52.246Z,8.83
2023-01-08T09:54:19.297Z,8.90
2023-01-08T09:56:45.898Z,8.99
2023-01-08T09:59:18.246Z,8.98
2023-01-08T10:01:45.938Z,8.85
2023-01-08T10:04:24.395Z,8.81
2023-01-08T10:07:11.829Z,8.90
2023-01-08T10:09:40.345Z,9.20
2023-01-08T10:12:07.602Z,9.34
2023-01-08T10:14:37.866Z,9.50
2023-01-08T10:17:20.857Z,9.56
2023-01-08T10:19:47.398Z,9.69
2023-01-08T10:22:17.510Z,9.99
2023-01-08T10:24:44.501Z,10.21
2023-01-08T10:27:16.753Z,10.30
2023-01-08T10:29:44.014Z,10.49
2023-01-08T10:32:29.134Z,10.69
2023-01-08T10:35:02.799Z,10.83
2023-01-08T10:37:33.015Z,10.82
2023-01-08T10:40:17.489Z,10.80
2023-01-08T10:42:44.187Z,10.64
2023-01-08T10:45:21.917Z,10.47
2023-01-08T10:47:52.970Z,10.33
2023-01-08T10:50:22.584Z,10.26
2023-01-08T10:52:57.239Z,10.24
2023-01-08T10:55:29.690Z,10.21
2023-01-08T10:58:03.848Z,10.13
2023-01-08T11:00:33.743Z,9.93
2023-01-08T11:03:06.979Z,9.68
2023-01-08T11:05:40.955Z,9.57
2023-01-08T11:08:16.016Z,9.54
2023-01-08T11:10:42.544Z,9.55
2023-01-08T11:13:19.689Z,9.48
2023-01-08T11:15:47.148Z,9.45
2023-01-08T11:18:13.624Z,9.42
2023-01-08T11:20:40.576Z,9.42
2023-01-08T11:23:19.098Z,9.45
2023-01-08T11:25:51.839Z,9.51
2023-01-08T11:28:29.791Z,9.53
2023-01-08T11:31:10.186Z,9.66
2023-01-08T11:33:39.877Z,9.78
2023-01-08T11:36:20.773Z,9.82
2023-01-08T11:38:47.492Z,9.91
2023-01-08T11:41:22.347Z,9.99
2023-01-08T11:44:09.547Z,9.99
2023-01-08T11:46:49.497Z,10.06
2023-01-08T11:49:53.725Z,10.12
2023-01-08T11:52:34.362Z,10.25
2023-01-08T11:55:30.143Z,10.30
2023-01-08T11:58:10.404Z,10.19
2023-01-08T12:01:09.745Z,10.11
2023-01-08T12:03:47.227Z,10.01
2023-01-08T12:06:28.469Z,9.95
2023-01-08T12:09:10.252Z,9.85
2023-01-08T12:11:57.607Z,9.76
2023-01-08T12:14:57.038Z,9.71
2023-01-08T12:17:41.169Z,9.64
2023-01-08T12:20:24.805Z,9.58
2023-01-08T12:23:28.545Z,9.50
2023-01-08T12:26:09.203Z,9.43
2023-01-08T12:28:44.571Z,9.40
2023-01-08T12:31:37.135Z,9.42
2023-01-08T12:34:11.088Z,9.44
2023-01-08T12:36:42.693Z,9.49
2023-01-08T12:39:14.016Z,9.53
2023-01-08T12:41:43.900Z,9.55
2023-01-08T12:44:11.807Z,9.59
2023-01-08T12:46:43.886Z,9.59
2023-01-08T12:49:14.308Z,9.59
2023-01-08T12:51:54.510Z,9.59
2023-01-08T12:54:31.537Z,9.60
2023-01-08T12:57:14.501Z,9.59
2023-01-08T13:00:14.672Z,9.61
2023-01-08T13:03:01.484Z,9.63
2023-01-08T13:05:27.923Z,9.64
2023-01-08T13:07:57.575Z,9.67
2023-01-08T13:10:30.056Z,9.70
2023-01-08T13:12:56.858Z,9.73
2023-01-08T13:15:26.336Z,9.75
2023-01-08T13:17:55.932Z,9.74
2023-01-08T13:20:28.303Z,9.73
2023-01-08T13:22:58.286Z,9.71
2023-01-08T13:25:24.637Z,9.72
2023-01-08T13:27:51.811Z,9.72
2023-01-08T13:30:37.337Z,9.72
2023-01-08T13:33:23.321Z,9.71
2023-01-08T13:35:50.446Z,9.68
2023-01-08T13:38:19.558Z,9.64
2023-01-08T13:40:48.159Z,9.59
2023-01-08T13:43:19.225Z,9.52
2023-01-08T13:46:19.038Z,9.47
2023-01-08T13:49:08.373Z,9.42
2023-01-08T13:51:43.747Z,9.38
2023-01-08T13:54:13.040Z,9.34
2023-01-08T13:56:46.448Z,9.30
2023-01-08T13:59:31.590Z,9.29
2023-01-08T14:01:58.934Z,9.27
2023-01-08T14:04:25.595Z,9.24
2023-01-08T14:06:52.237Z,9.20
2023-01-08T14:09:24.335Z,9.15
2023-01-08T14:11:54.543Z,9.09
2023-01-08T14:14:22.600Z,9.06
2023-01-08T14:16:51.711Z,9.01
2023-01-08T14:19:21.395Z,8.98
2023-01-08T14:21:50.437Z,8.95
2023-01-08T14:24:18.942Z,8.89
2023-01-08T14:26:55.674Z,8.81
2023-01-08T14:29:24.533Z,8.76
2023-01-08T14:31:53.814Z,8.71
2023-01-08T14:34:23.519Z,8.63
2023-01-08T14:36:54.017Z,8.55
2023-01-08T14:39:36.903Z,8.47
2023-01-08T14:42:35.739Z,8.34
2023-01-08T14:45:06.937Z,8.22
2023-01-08T14:47:38.953Z,8.15
2023-01-08T14:50:06.732Z,8.16
2023-01-08T14:52:35.457Z,8.17
2023-01-08T14:55:03.718Z,8.17
2023-01-08T14:57:30.765Z,8.15
2023-01-08T14:59:59.935Z,8.09
2023-01-08T15:02:33.864Z,8.04
2023-01-08T15:05:14.657Z,7.98
2023-01-08T15:08:23.359Z,7.93
2023-01-08T15:11:02.526Z,7.84
2023-01-08T15:13:35.516Z,7.80
2023-01-08T15:16:08.381Z,7.76
2023-01-08T15:19:07.814Z,7.68
2023-01-08T15:21:35.290Z,7.71
2023-01-08T15:24:03.937Z,7.76
2023-01-08T15:26:31.337Z,7.76
2023-01-08T15:29:05.140Z,7.74
2023-01-08T15:31:45.027Z,7.74
2023-01-08T15:34:11.764Z,7.70
2023-01-08T15:36:38.576Z,7.64
2023-01-08T15:39:05.832Z,7.60
2023-01-08T15:41:40.190Z,7.56
2023-01-08T15:44:08.326Z,7.58
2023-01-08T15:46:35.484Z,7.62
2023-01-08T15:49:03.637Z,7.61
2023-01-08T15:51:33.394Z,7.62
2023-01-08T15:54:01.098Z,7.67
2023-01-08T15:56:27.787Z,7.79
2023-01-08T15:58:54.299Z,7.83
2023-01-08T16:01:20.784Z,7.82
2023-01-08T16:03:48.941Z,7.79
2023-01-08T16:06:15.479Z,7.77
2023-01-08T16:08:42.018Z,7.75
2023-01-08T16:11:08.476Z,7.77
2023-01-08T16:13:35.001Z,7.80
2023-01-08T16:16:07.094Z,7.81
2023-01-08T16:18:33.782Z,7.85
2023-01-08T16:21:03.922Z,7.86
2023-01-08T16:23:31.290Z,7.83
2023-01-08T16:25:57.824Z,7.80
2023-01-08T16:28:24.469Z,7.79
2023-01-08T16:30:51.192Z,7.80
2023-01-08T16:33:17.703Z,7.81
2023-01-08T16:35:44.135Z,7.83
2023-01-08T16:38:13.086Z,7.83
2023-01-08T16:40:39.648Z,7.81
2023-01-08T16:43:06.224Z,7.81
2023-01-08T16:45:32.790Z,7.81
2023-01-08T16:47:59.306Z,7.81
2023-01-08T16:50:25.888Z,7.84
2023-01-08T16:52:52.432Z,7.88
2023-01-08T16:55:18.971Z,7.92
2023-01-08T16:57:45.558Z,7.88
2023-01-08T17:00:12.750Z,7.78
2023-01-08T17:02:39.408Z,7.69
2023-01-08T17:05:06.772Z,7.60
2023-01-08T17:07:33.415Z,7.50
2023-01-08T17:09:59.968Z,7.46
2023-01-08T17:12:26.424Z,7.48
2023-01-08T17:14:53.242Z,7.47
2023-01-08T17:17:19.874Z,7.43
2023-01-08T17:19:46.711Z,7.36
2023-01-08T17:22:13.239Z,7.31
2023-01-08T17:24:39.786Z,7.29
2023-01-08T17:27:06.246Z,7.30
2023-01-08T17:29:32.787Z,7.32
2023-01-08T17:31:59.224Z,7.35
2023-01-08T17:34:25.759Z,7.39
2023-01-08T17:36:52.182Z,7.40
2023-01-08T17:39:18.885Z,7.43
2023-01-08T17:41:45.384Z,7.42
2023-01-08T17:44:12.949Z,7.37
2023-01-08T17:46:42.365Z,7.30
2023-01-08T17:49:10.535Z,7.26
2023-01-08T17:51:37.081Z,7.27
2023-01-08T17:54:04.041Z,7.35
2023-01-08T17:56:30.666Z,7.37
2023-01-08T17:58:57.306Z,7.38
2023-01-08T18:01:23.992Z,7.40
2023-01-08T18:03:50.703Z,7.50
2023-01-08T18:06:17.331Z,7.57
2023-01-08T18:08:43.992Z,7.60
2023-01-08T18:11:11.126Z,7.62
2023-01-08T18:13:38.070Z,7.63
2023-01-08T18:16:12.645Z,7.64
2023-01-08T18:18:40.153Z,7.63
2023-01-08T18:21:07.527Z,7.62
2023-01-08T18:23:34.167Z,7.63
2023-01-08T18:26:09.497Z,7.71
2023-01-08T18:28:37.478Z,7.74
2023-01-08T18:31:08.913Z,7.71
2023-01-08T18:33:37.057Z,7.74
2023-01-08T18:36:06.913Z,7.75
2023-01-08T18:38:33.677Z,7.73
2023-01-08T18:41:00.419Z,7.72
2023-01-08T18:43:27.268Z,7.70
2023-01-08T18:46:04.914Z,7.68
2023-01-08T18:48:32.351Z,7.62
2023-01-08T18:50:59.176Z,7.60
2023-01-08T18:53:25.821Z,7.55
2023-01-08T18:55:52.458Z,7.53
2023-01-08T18:58:19.104Z,7.56
2023-01-08T19:00:46.421Z,7.57
2023-01-08T19:03:12.900Z,7.56
2023-01-08T19:05:42.682Z,7.55
2023-01-08T19:08:10.221Z,7.50
2023-01-08T19:10:37.941Z,7.34
2023-01-08T19:13:06.023Z,7.16
2023-01-08T19:15:33.481Z,7.02
2023-01-08T19:18:00.177Z,6.90
2023-01-08T19:20:27.922Z,6.76
2023-01-08T19:22:54.844Z,6.60
2023-01-08T19:25:21.886Z,6.44
2023-01-08T19:27:48.631Z,6.32
2023-01-08T19:30:15.686Z,6.22
2023-01-08T19:32:42.164Z,6.12
2023-01-08T19:35:09.161Z,6.02
2023-01-08T19:37:35.837Z,5.90
2023-01-08T19:40:02.557Z,5.77
2023-01-08T19:42:29.167Z,5.65
2023-01-08T19:44:57.179Z,5.56
2023-01-08T19:47:24.137Z,5.44
2023-01-08T19:49:50.768Z,5.36
2023-01-08T19:52:18.226Z,5.32
2023-01-08T19:54:45.792Z,5.30
2023-01-08T19:57:12.310Z,5.29
2023-01-08T19:59:42.049Z,5.29
2023-01-08T20:02:10.453Z,5.29
2023-01-08T20:04:37.762Z,5.27
2023-01-08T20:07:04.430Z,5.25
2023-01-08T20:09:30.965Z,5.24
2023-01-08T20:11:57.641Z,5.23
2023-01-08T20:14:24.117Z,5.23
2023-01-08T20:16:50.885Z,5.26
2023-01-08T20:19:17.390Z,5.29
2023-01-08T20:21:43.964Z,5.32
2023-01-08T20:24:12.777Z,5.34
2023-01-08T20:26:40.627Z,5.35
2023-01-08T20:29:07.483Z,5.37
2023-01-08T20:31:34.675Z,5.35
2023-01-08T20:34:04.022Z,5.30
2023-01-08T20:36:32.827Z,5.24
2023-01-08T20:39:02.378Z,5.16
2023-01-08T20:41:29.063Z,5.06
2023-01-08T20:43:55.916Z,4.96
2023-01-08T20:46:24.952Z,4.89
2023-01-08T20:48:51.583Z,4.81
2023-01-08T20:51:18.127Z,4.73
2023-01-08T20:53:44.580Z,4.66
2023-01-08T20:56:15.115Z,4.62
2023-01-08T20:58:46.708Z,4.56
2023-01-08T21:01:14.782Z,4.52
2023-01-08T21:03:42.723Z,4.50
2023-01-08T21:06:17.960Z,4.51
2023-01-08T21:08:47.362Z,4.52
2023-01-08T21:11:14.613Z,4.50
2023-01-08T21:13:42.284Z,4.46
2023-01-08T21:16:13.342Z,4.44
2023-01-08T21:18:40.569Z,4.37
2023-01-08T21:21:07.428Z,4.28
2023-01-08T21:23:34.306Z,4.19
2023-01-08T21:26:06.768Z,4.09
2023-01-08T21:28:33.401Z,4.05
2023-01-08T21:31:10.410Z,3.99
2023-01-08T21:33:37.744Z,3.90
2023-01-08T21:36:06.589Z,3.82
2023-01-08T21:38:33.667Z,3.73
2023-01-08T21:41:01.837Z,3.67
2023-01-08T21:43:28.691Z,3.59
2023-01-08T21:46:00.975Z,3.51
2023-01-08T21:48:28.951Z,3.40
2023-01-08T21:50:55.491Z,3.27
2023-01-08T21:53:21.907Z,3.16
2023-01-08T21:55:48.438Z,3.06
2023-01-08T21:58:14.912Z,2.96
2023-01-08T22:00:41.410Z,2.88
2023-01-08T22:03:08.039Z,2.80
2023-01-08T22:05:34.631Z,2.73
2023-01-08T22:08:01.054Z,2.68
2023-01-08T22:10:29.050Z,2.68
2023-01-08T22:12:55.590Z,2.65
2023-01-08T22:15:22.032Z,2.61
2023-01-08T22:17:48.574Z,2.59
2023-01-08T22:20:15.356Z,2.57
2023-01-08T22:22:41.795Z,2.53
2023-01-08T22:25:08.727Z,2.60
2023-01-08T22:27:35.245Z,2.68
2023-01-08T22:30:01.814Z,2.79
2023-01-08T22:32:28.322Z,2.81
2023-01-08T22:34:54.866Z,2.82
2023-01-08T22:37:21.298Z,2.79
2023-01-08T22:39:48.820Z,2.70
2023-01-08T22:42:16.930Z,2.62
2023-01-08T22:44:43.384Z,2.56
2023-01-08T22:47:10.234Z,2.49
2023-01-08T22:49:37.852Z,2.47
2023-01-08T22:52:04.523Z,2.44
2023-01-08T22:54:30.975Z,2.42
2023-01-08T22:56:57.367Z,2.40
2023-01-08T22:59:23.859Z,2.41
2023-01-08T23:01:50.341Z,2.49
2023-01-08T23:04:16.853Z,2.58
2023-01-08T23:06:43.493Z,2.59
2023-01-08T23:09:10.118Z,2.61
2023-01-08T23:11:36.763Z,2.63
2023-01-08T23:14:03.402Z,2.64
2023-01-08T23:16:30.244Z,2.62
2023-01-08T23:18:57.134Z,2.64
2023-01-08T23:21:25.640Z,2.64
2023-01-08T23:23:52.934Z,2.61
2023-01-08T23:26:28.810Z,2.61
2023-01-08T23:28:57.075Z,2.64
2023-01-08T23:31:26.773Z,2.59
2023-01-08T23:33:54.141Z,2.56
2023-01-08T23:36:21.578Z,2.53
2023-01-08T23:38:50.804Z,2.52
2023-01-08T23:41:18.372Z,2.48
2023-01-08T23:43:45.225Z,2.44
2023-01-08T23:46:12.607Z,2.39
2023-01-08T23:48:39.130Z,2.38
2023-01-08T23:51:05.884Z,2.50
2023-01-08T23:53:32.308Z,2.65
2023-01-08T23:55:59.362Z,2.80
2023-01-08T23:58:25.907Z,2.87
